Airfield :
LOGIN :

Register | Disclaimer

   EN    FR    IT 

 










Legend :    VFR   Marginal VFR   IFR   Intensive IFR   Very Intensive IFR
Visi :
Ceiling :
>= 8 km
>= 3000ft
5 to 8 km
1000 to 3000 ft
1500m to 5 km
500 to 1000 ft
800 to 1500m
200 to 500 ft
< 800m
< 200 ft
Symbols :   Thunderstorms  Fog  Heavy snow  Heavy precipitations  Wind > 20 kt
SIGMETs :     Misc.  Thunderstorms  Icing  Turbulence  Mountain Waves  Volcanic Ashes







- Airport Elevation : 38 ft
- IATA code : BOH
- Download approach charts


EGHH - Bournemouth

CURRENT METAR :
  • 142020Z 29007KT 6000 SHRA SCT016 SCT035 05/04 Q0989

EXPIRED METARs :
  • 141950Z 27008KT 9999 -SHRA FEW036 05/03 Q0989
  • 141920Z 27008KT 9999 FEW035 05/03 Q0989
  • 141850Z 25013KT 9999 -SHRA FEW029 06/03 Q0989
  • 141820Z 22006KT 9999 BKN048 05/03 Q0989
  • 141750Z 23007KT 9999 FEW046 04/02 Q0989

TAF TAF EGHH
Valid from the 14 at 18:00 until the 15 at 03:00 UTC


141702Z 1418/1503 28009KT 9999 SCT030
TEMPO 1418/1424 29015G25KT 6000 SHRA BKN010
ATIS : +44 1202 364 151
Met : +44 1202 364 158 (TAF)
No reported NOTAMs for that airfield.
1 SIGMET reported for the London FIR (EGTT) :
 
Severe turbulence
EGTT SIGMET 05 VALID 141900/142300 EGRR
EGTT LONDON FIR SEV TURB FCST SW OF LINE N5000 W00149 - N5152 W00623 SFC/FL060 STNR WKN=



MET'MAP, your aeronautical weather chart ! - Copyright ORBIFLY December 2007 - Disclaimer

ORBIFLY MET'MAP TEAM :

Programming & Development : Alexandra Zaïnal
Concept & Development : Baudouin d'Aumeries
Co-Development & Prog : Marc-Olivier Méhu
Technical & hardware support : Manuel Goepfert

Contact : metmap@orbifly.com




SOURCES & CREDITS :

   NOAA